874  
SXUS55 KMSO 241543  
OSOMSO  
MONTANA AWOS SUMMARY  
NATIONAL WEATHER SERVICE MISSOULA MT  
843 AM MST MON APR 24 2017  
 
MONTANA AWOS REPORTS  
 
ROUNDUP |KRPX 241535Z AUTO 00000KT 40SM 06/04 A2960 RMK AO1 T00610039  
LAUREL |K6S8 241535Z AUTO 00000KT 40SM 09/03 A2967 RMK AO1 T00940033  
 
CLICK HERE TO GO TO PREVIOUS BULLETINS.

The Nexlab MT Page
The Nexlab ID Page Main Text Page